Terminal Aerodrome Forecast
Issued by NWS

Home | Current Version | Previous Version | Text Only | Print | Product List | Glossary On
Versions: 1 2 3 4 5 6 7 8 9 10 11 12 13 14 15 16 17 18 19 20 21 22 23 24 25
027
FTUS43 KSGF 282337
TAFBBG
TAF
KBBG 282337Z 2900/2924 12004KT 4SM -DZ SCT007 OVC014
     FM290400 VRB03KT 3SM -TSRA BKN007 OVC014CB
      TEMPO 2906/2910 1SM TSRA OVC007CB
     FM291100 13008KT 2SM TSRA BKN007 OVC015CB
     FM291800 18010KT 5SM TSRA OVC020CB=

USA.gov is the U.S. government's official web portal to all federal, state and local government web resources and services.